Terminal Aerodrome Forecast
Issued by NWS Springfield, MO

Home | Current Version | Previous Version | Text Only | Print | Product List | Glossary On
Versions: 1 2 3 4 5 6 7 8 9 10 11 12 13 14 15 16 17 18 19 20 21 22
000
FTUS43 KSGF 232320
TAFSGF
TAF
KSGF 232320Z 2400/2424 25008KT 5SM -RA BR OVC040
     FM240100 15010KT P6SM VCSH SCT050 OVC100
     FM240300 16012KT P6SM VCSH SCT050 SCT140
     FM240800 16010KT P6SM VCSH SCT040 BKN100 WS020/22035KT
     FM241100 17008KT P6SM VCTS BKN020 BKN040CB
     FM242000 17010KT P6SM OVC050=

USA.gov is the U.S. government's official web portal to all federal, state and local government web resources and services.